sensor_id;sensor_type;location;lat;lon;timestamp;temperature;humidity
8953;DHT22;4511;50.890;8.054;2022-10-31T00:01:39;12.60;99.90
8953;DHT22;4511;50.890;8.054;2022-10-31T00:04:07;12.50;99.90
8953;DHT22;4511;50.890;8.054;2022-10-31T00:06:34;12.40;99.90
8953;DHT22;4511;50.890;8.054;2022-10-31T00:09:03;12.40;99.90
8953;DHT22;4511;50.890;8.054;2022-10-31T00:11:30;12.40;99.90
8953;DHT22;4511;50.890;8.054;2022-10-31T00:13:58;12.50;99.90
8953;DHT22;4511;50.890;8.054;2022-10-31T00:16:25;12.50;99.90
8953;DHT22;4511;50.890;8.054;2022-10-31T00:18:54;12.50;99.90
8953;DHT22;4511;50.890;8.054;2022-10-31T00:21:22;12.50;99.90
8953;DHT22;4511;50.890;8.054;2022-10-31T00:23:49;12.40;99.90
8953;DHT22;4511;50.890;8.054;2022-10-31T00:26:17;12.40;99.90
8953;DHT22;4511;50.890;8.054;2022-10-31T00:28:44;12.40;99.90
8953;DHT22;4511;50.890;8.054;2022-10-31T00:31:12;12.40;99.90
8953;DHT22;4511;50.890;8.054;2022-10-31T00:33:40;12.30;99.90
8953;DHT22;4511;50.890;8.054;2022-10-31T00:36:09;12.30;99.90
8953;DHT22;4511;50.890;8.054;2022-10-31T00:38:36;12.30;99.90
8953;DHT22;4511;50.890;8.054;2022-10-31T00:41:04;12.30;99.90
8953;DHT22;4511;50.890;8.054;2022-10-31T00:43:32;12.20;99.90
8953;DHT22;4511;50.890;8.054;2022-10-31T00:45:59;12.30;99.90
8953;DHT22;4511;50.890;8.054;2022-10-31T00:48:25;12.30;99.90
8953;DHT22;4511;50.890;8.054;2022-10-31T00:50:52;12.30;99.90
8953;DHT22;4511;50.890;8.054;2022-10-31T00:53:19;12.40;99.90
8953;DHT22;4511;50.890;8.054;2022-10-31T00:55:46;12.40;99.90
8953;DHT22;4511;50.890;8.054;2022-10-31T00:58:13;12.40;99.90
8953;DHT22;4511;50.890;8.054;2022-10-31T01:00:41;12.30;99.90
8953;DHT22;4511;50.890;8.054;2022-10-31T01:03:08;12.30;99.90
8953;DHT22;4511;50.890;8.054;2022-10-31T01:05:35;12.30;99.90
8953;DHT22;4511;50.890;8.054;2022-10-31T01:08:02;12.20;99.90
8953;DHT22;4511;50.890;8.054;2022-10-31T01:10:28;12.20;99.90
8953;DHT22;4511;50.890;8.054;2022-10-31T01:12:55;12.20;99.90
8953;DHT22;4511;50.890;8.054;2022-10-31T01:15:22;12.20;99.90
8953;DHT22;4511;50.890;8.054;2022-10-31T01:17:50;12.10;99.90
8953;DHT22;4511;50.890;8.054;2022-10-31T01:20:18;12.10;99.90
8953;DHT22;4511;50.890;8.054;2022-10-31T01:22:45;12.10;99.90
8953;DHT22;4511;50.890;8.054;2022-10-31T01:25:11;12.10;99.90
8953;DHT22;4511;50.890;8.054;2022-10-31T01:27:38;12.10;99.90
8953;DHT22;4511;50.890;8.054;2022-10-31T01:30:06;12.10;99.90
8953;DHT22;4511;50.890;8.054;2022-10-31T01:32:33;12.10;99.90
8953;DHT22;4511;50.890;8.054;2022-10-31T01:35:01;12.10;99.90
8953;DHT22;4511;50.890;8.054;2022-10-31T01:37:28;12.10;99.90
8953;DHT22;4511;50.890;8.054;2022-10-31T01:39:55;12.10;99.90
8953;DHT22;4511;50.890;8.054;2022-10-31T01:42:22;12.10;99.90
8953;DHT22;4511;50.890;8.054;2022-10-31T01:44:58;12.10;99.90
8953;DHT22;4511;50.890;8.054;2022-10-31T01:47:41;12.10;99.90
8953;DHT22;4511;50.890;8.054;2022-10-31T01:50:23;12.10;99.90
8953;DHT22;4511;50.890;8.054;2022-10-31T01:52:53;12.10;99.90
8953;DHT22;4511;50.890;8.054;2022-10-31T01:55:23;12.10;99.90
8953;DHT22;4511;50.890;8.054;2022-10-31T01:57:53;12.10;99.90
8953;DHT22;4511;50.890;8.054;2022-10-31T02:00:21;12.10;99.90
8953;DHT22;4511;50.890;8.054;2022-10-31T02:02:49;12.10;99.90
8953;DHT22;4511;50.890;8.054;2022-10-31T02:05:21;12.10;99.90
8953;DHT22;4511;50.890;8.054;2022-10-31T02:07:54;12.10;99.90
8953;DHT22;4511;50.890;8.054;2022-10-31T02:10:22;12.10;99.90
8953;DHT22;4511;50.890;8.054;2022-10-31T02:12:50;12.00;99.90
8953;DHT22;4511;50.890;8.054;2022-10-31T02:15:18;12.00;99.90
8953;DHT22;4511;50.890;8.054;2022-10-31T02:17:45;12.00;99.90
8953;DHT22;4511;50.890;8.054;2022-10-31T02:20:15;12.10;99.90
8953;DHT22;4511;50.890;8.054;2022-10-31T02:23:05;12.10;99.90
8953;DHT22;4511;50.890;8.054;2022-10-31T02:26:01;12.00;99.90
8953;DHT22;4511;50.890;8.054;2022-10-31T02:28:42;11.80;99.90
8953;DHT22;4511;50.890;8.054;2022-10-31T02:31:25;12.00;99.90
8953;DHT22;4511;50.890;8.054;2022-10-31T02:33:58;12.00;99.90
8953;DHT22;4511;50.890;8.054;2022-10-31T02:36:30;11.90;99.90
8953;DHT22;4511;50.890;8.054;2022-10-31T02:39:10;11.90;99.90
8953;DHT22;4511;50.890;8.054;2022-10-31T02:41:44;11.90;99.90
8953;DHT22;4511;50.890;8.054;2022-10-31T02:44:16;12.00;99.90
8953;DHT22;4511;50.890;8.054;2022-10-31T02:46:49;12.10;99.90
8953;DHT22;4511;50.890;8.054;2022-10-31T02:49:23;12.00;99.90
8953;DHT22;4511;50.890;8.054;2022-10-31T02:51:50;12.00;99.90
8953;DHT22;4511;50.890;8.054;2022-10-31T02:54:19;11.90;99.90
8953;DHT22;4511;50.890;8.054;2022-10-31T02:56:47;11.80;99.90
8953;DHT22;4511;50.890;8.054;2022-10-31T02:59:15;11.80;99.90
8953;DHT22;4511;50.890;8.054;2022-10-31T03:02:01;11.90;99.90
8953;DHT22;4511;50.890;8.054;2022-10-31T03:05:02;12.00;99.90
8953;DHT22;4511;50.890;8.054;2022-10-31T03:07:41;12.00;99.90
8953;DHT22;4511;50.890;8.054;2022-10-31T03:10:16;11.90;99.90
8953;DHT22;4511;50.890;8.054;2022-10-31T03:12:50;11.90;99.90
8953;DHT22;4511;50.890;8.054;2022-10-31T03:15:22;11.90;99.90
8953;DHT22;4511;50.890;8.054;2022-10-31T03:17:56;11.90;99.90
8953;DHT22;4511;50.890;8.054;2022-10-31T03:20:32;11.80;99.90
8953;DHT22;4511;50.890;8.054;2022-10-31T03:23:01;11.80;99.90
8953;DHT22;4511;50.890;8.054;2022-10-31T03:25:30;11.90;99.90
8953;DHT22;4511;50.890;8.054;2022-10-31T03:27:59;11.70;99.90
8953;DHT22;4511;50.890;8.054;2022-10-31T03:30:27;11.70;99.90
8953;DHT22;4511;50.890;8.054;2022-10-31T03:32:59;11.80;99.90
8953;DHT22;4511;50.890;8.054;2022-10-31T03:35:28;11.80;99.90
8953;DHT22;4511;50.890;8.054;2022-10-31T03:37:57;11.80;99.90
8953;DHT22;4511;50.890;8.054;2022-10-31T03:40:27;11.70;99.90
8953;DHT22;4511;50.890;8.054;2022-10-31T03:42:58;11.60;99.90
8953;DHT22;4511;50.890;8.054;2022-10-31T03:45:29;11.60;99.90
8953;DHT22;4511;50.890;8.054;2022-10-31T03:47:59;11.60;99.90
8953;DHT22;4511;50.890;8.054;2022-10-31T03:50:30;11.60;99.90
8953;DHT22;4511;50.890;8.054;2022-10-31T03:53:05;11.60;99.90
8953;DHT22;4511;50.890;8.054;2022-10-31T03:55:39;11.60;99.90
8953;DHT22;4511;50.890;8.054;2022-10-31T03:58:09;11.50;99.90
8953;DHT22;4511;50.890;8.054;2022-10-31T04:00:39;11.50;99.90
8953;DHT22;4511;50.890;8.054;2022-10-31T04:03:15;11.60;99.90
8953;DHT22;4511;50.890;8.054;2022-10-31T04:05:46;11.60;99.90
8953;DHT22;4511;50.890;8.054;2022-10-31T04:08:16;11.70;99.90
8953;DHT22;4511;50.890;8.054;2022-10-31T04:10:44;11.70;99.90
8953;DHT22;4511;50.890;8.054;2022-10-31T04:13:15;11.60;99.90
8953;DHT22;4511;50.890;8.054;2022-10-31T04:15:44;11.50;99.90
8953;DHT22;4511;50.890;8.054;2022-10-31T04:18:13;11.50;99.90
8953;DHT22;4511;50.890;8.054;2022-10-31T04:20:41;11.50;99.90
8953;DHT22;4511;50.890;8.054;2022-10-31T04:23:16;11.60;99.90
8953;DHT22;4511;50.890;8.054;2022-10-31T04:25:43;11.60;99.90
8953;DHT22;4511;50.890;8.054;2022-10-31T04:28:10;11.70;99.90
8953;DHT22;4511;50.890;8.054;2022-10-31T04:30:37;11.60;99.90
8953;DHT22;4511;50.890;8.054;2022-10-31T04:33:04;11.60;99.90
8953;DHT22;4511;50.890;8.054;2022-10-31T04:35:32;11.60;99.90
8953;DHT22;4511;50.890;8.054;2022-10-31T04:37:59;11.60;99.90
8953;DHT22;4511;50.890;8.054;2022-10-31T04:40:25;11.50;99.90
8953;DHT22;4511;50.890;8.054;2022-10-31T04:42:52;11.40;99.90
8953;DHT22;4511;50.890;8.054;2022-10-31T04:45:19;11.50;99.90
8953;DHT22;4511;50.890;8.054;2022-10-31T04:47:45;11.40;99.90
8953;DHT22;4511;50.890;8.054;2022-10-31T04:50:12;11.30;99.90
8953;DHT22;4511;50.890;8.054;2022-10-31T04:52:41;11.30;99.90
8953;DHT22;4511;50.890;8.054;2022-10-31T04:55:09;11.30;99.90
8953;DHT22;4511;50.890;8.054;2022-10-31T04:57:40;11.30;99.90
8953;DHT22;4511;50.890;8.054;2022-10-31T05:00:08;11.40;99.90
8953;DHT22;4511;50.890;8.054;2022-10-31T05:02:43;11.20;99.90
8953;DHT22;4511;50.890;8.054;2022-10-31T05:05:10;11.20;99.90
8953;DHT22;4511;50.890;8.054;2022-10-31T05:07:40;11.30;99.90
8953;DHT22;4511;50.890;8.054;2022-10-31T05:10:08;11.20;99.90
8953;DHT22;4511;50.890;8.054;2022-10-31T05:12:36;11.20;99.90
8953;DHT22;4511;50.890;8.054;2022-10-31T05:15:04;11.20;99.90
8953;DHT22;4511;50.890;8.054;2022-10-31T05:17:31;11.30;99.90
8953;DHT22;4511;50.890;8.054;2022-10-31T05:19:58;11.20;99.90
8953;DHT22;4511;50.890;8.054;2022-10-31T05:22:25;11.20;99.90
8953;DHT22;4511;50.890;8.054;2022-10-31T05:24:53;11.20;99.90
8953;DHT22;4511;50.890;8.054;2022-10-31T05:27:20;11.20;99.90
8953;DHT22;4511;50.890;8.054;2022-10-31T05:29:47;11.10;99.90
8953;DHT22;4511;50.890;8.054;2022-10-31T05:32:13;11.10;99.90
8953;DHT22;4511;50.890;8.054;2022-10-31T05:34:40;11.00;99.90
8953;DHT22;4511;50.890;8.054;2022-10-31T05:37:07;11.10;99.90
8953;DHT22;4511;50.890;8.054;2022-10-31T05:39:34;11.10;99.90
8953;DHT22;4511;50.890;8.054;2022-10-31T05:42:02;11.10;99.90
8953;DHT22;4511;50.890;8.054;2022-10-31T05:44:29;11.10;99.90
8953;DHT22;4511;50.890;8.054;2022-10-31T05:46:55;11.00;99.90
8953;DHT22;4511;50.890;8.054;2022-10-31T05:49:22;11.00;99.90
8953;DHT22;4511;50.890;8.054;2022-10-31T05:51:49;11.20;99.90
8953;DHT22;4511;50.890;8.054;2022-10-31T05:54:15;11.20;99.90
8953;DHT22;4511;50.890;8.054;2022-10-31T05:56:42;11.20;99.90
8953;DHT22;4511;50.890;8.054;2022-10-31T05:59:10;11.20;99.90
8953;DHT22;4511;50.890;8.054;2022-10-31T06:01:37;11.10;99.90
8953;DHT22;4511;50.890;8.054;2022-10-31T06:04:04;11.10;99.90
8953;DHT22;4511;50.890;8.054;2022-10-31T06:06:31;11.40;99.90
8953;DHT22;4511;50.890;8.054;2022-10-31T06:08:57;11.30;99.90
8953;DHT22;4511;50.890;8.054;2022-10-31T06:11:24;11.10;99.90
8953;DHT22;4511;50.890;8.054;2022-10-31T06:13:51;11.00;99.90
8953;DHT22;4511;50.890;8.054;2022-10-31T06:16:19;10.90;99.90
8953;DHT22;4511;50.890;8.054;2022-10-31T06:18:46;11.00;99.90
8953;DHT22;4511;50.890;8.054;2022-10-31T06:21:12;10.70;99.90
8953;DHT22;4511;50.890;8.054;2022-10-31T06:23:39;10.60;99.90
8953;DHT22;4511;50.890;8.054;2022-10-31T06:26:06;10.60;99.90
8953;DHT22;4511;50.890;8.054;2022-10-31T06:28:32;10.60;99.90
8953;DHT22;4511;50.890;8.054;2022-10-31T06:30:59;10.70;99.90
8953;DHT22;4511;50.890;8.054;2022-10-31T06:33:27;10.60;99.90
8953;DHT22;4511;50.890;8.054;2022-10-31T06:35:54;10.60;99.90
8953;DHT22;4511;50.890;8.054;2022-10-31T06:38:21;10.60;99.90
8953;DHT22;4511;50.890;8.054;2022-10-31T06:40:47;10.60;99.90
8953;DHT22;4511;50.890;8.054;2022-10-31T06:43:14;10.70;99.90
8953;DHT22;4511;50.890;8.054;2022-10-31T06:45:41;10.70;99.90
8953;DHT22;4511;50.890;8.054;2022-10-31T06:48:08;10.70;99.90
8953;DHT22;4511;50.890;8.054;2022-10-31T06:50:36;10.70;99.90
8953;DHT22;4511;50.890;8.054;2022-10-31T06:53:03;10.70;99.90
8953;DHT22;4511;50.890;8.054;2022-10-31T06:55:29;10.70;99.90
8953;DHT22;4511;50.890;8.054;2022-10-31T06:57:58;10.70;99.90
8953;DHT22;4511;50.890;8.054;2022-10-31T07:00:26;10.70;99.90
8953;DHT22;4511;50.890;8.054;2022-10-31T07:02:54;10.70;99.90
8953;DHT22;4511;50.890;8.054;2022-10-31T07:05:21;10.80;99.90
8953;DHT22;4511;50.890;8.054;2022-10-31T07:07:52;10.80;99.90
8953;DHT22;4511;50.890;8.054;2022-10-31T07:10:19;10.90;99.90
8953;DHT22;4511;50.890;8.054;2022-10-31T07:12:45;10.90;99.90
8953;DHT22;4511;50.890;8.054;2022-10-31T07:15:12;10.80;99.90
8953;DHT22;4511;50.890;8.054;2022-10-31T07:17:39;10.90;99.90
8953;DHT22;4511;50.890;8.054;2022-10-31T07:20:06;10.90;99.90
8953;DHT22;4511;50.890;8.054;2022-10-31T07:22:34;10.90;99.90
8953;DHT22;4511;50.890;8.054;2022-10-31T07:25:02;11.00;99.90
8953;DHT22;4511;50.890;8.054;2022-10-31T07:27:35;11.00;99.90
8953;DHT22;4511;50.890;8.054;2022-10-31T07:30:02;11.10;99.90
8953;DHT22;4511;50.890;8.054;2022-10-31T07:32:37;11.20;99.90
8953;DHT22;4511;50.890;8.054;2022-10-31T07:35:04;11.20;99.90
8953;DHT22;4511;50.890;8.054;2022-10-31T07:37:31;11.20;99.90
8953;DHT22;4511;50.890;8.054;2022-10-31T07:42:26;11.30;99.90
8953;DHT22;4511;50.890;8.054;2022-10-31T07:44:53;11.40;99.90
8953;DHT22;4511;50.890;8.054;2022-10-31T07:47:20;11.40;99.90
8953;DHT22;4511;50.890;8.054;2022-10-31T07:49:47;11.50;99.90
8953;DHT22;4511;50.890;8.054;2022-10-31T07:52:13;11.60;99.90
8953;DHT22;4511;50.890;8.054;2022-10-31T07:54:40;11.70;99.90
8953;DHT22;4511;50.890;8.054;2022-10-31T07:57:07;11.70;99.90
8953;DHT22;4511;50.890;8.054;2022-10-31T07:59:35;11.90;99.90
8953;DHT22;4511;50.890;8.054;2022-10-31T08:02:02;11.90;99.90
8953;DHT22;4511;50.890;8.054;2022-10-31T08:04:29;12.00;99.90
8953;DHT22;4511;50.890;8.054;2022-10-31T08:06:56;12.10;99.90
8953;DHT22;4511;50.890;8.054;2022-10-31T08:09:23;12.10;99.90
8953;DHT22;4511;50.890;8.054;2022-10-31T08:11:52;12.20;99.90
8953;DHT22;4511;50.890;8.054;2022-10-31T08:14:19;12.20;99.90
8953;DHT22;4511;50.890;8.054;2022-10-31T08:16:47;12.30;99.90
8953;DHT22;4511;50.890;8.054;2022-10-31T08:19:14;12.40;99.90
8953;DHT22;4511;50.890;8.054;2022-10-31T08:21:40;12.50;99.90
8953;DHT22;4511;50.890;8.054;2022-10-31T08:24:07;12.60;99.90
8953;DHT22;4511;50.890;8.054;2022-10-31T08:26:34;12.60;99.90
8953;DHT22;4511;50.890;8.054;2022-10-31T08:29:01;12.60;99.90
8953;DHT22;4511;50.890;8.054;2022-10-31T08:31:28;12.60;99.90
8953;DHT22;4511;50.890;8.054;2022-10-31T08:33:56;12.60;99.90
8953;DHT22;4511;50.890;8.054;2022-10-31T08:36:23;12.70;99.90
8953;DHT22;4511;50.890;8.054;2022-10-31T08:38:50;12.70;99.90
8953;DHT22;4511;50.890;8.054;2022-10-31T08:41:17;12.80;99.90
8953;DHT22;4511;50.890;8.054;2022-10-31T08:43:43;12.80;99.90
8953;DHT22;4511;50.890;8.054;2022-10-31T08:46:11;12.80;99.90
8953;DHT22;4511;50.890;8.054;2022-10-31T08:48:37;12.90;99.90
8953;DHT22;4511;50.890;8.054;2022-10-31T08:51:06;13.00;99.90
8953;DHT22;4511;50.890;8.054;2022-10-31T08:53:33;13.00;99.90
8953;DHT22;4511;50.890;8.054;2022-10-31T08:55:59;13.10;99.90
8953;DHT22;4511;50.890;8.054;2022-10-31T08:58:26;13.30;99.90
8953;DHT22;4511;50.890;8.054;2022-10-31T09:00:54;13.30;99.90
8953;DHT22;4511;50.890;8.054;2022-10-31T09:03:22;13.40;99.90
8953;DHT22;4511;50.890;8.054;2022-10-31T09:05:50;13.30;99.90
8953;DHT22;4511;50.890;8.054;2022-10-31T09:08:18;13.40;99.90
8953;DHT22;4511;50.890;8.054;2022-10-31T09:10:45;13.60;99.90
8953;DHT22;4511;50.890;8.054;2022-10-31T09:13:15;13.70;99.90
8953;DHT22;4511;50.890;8.054;2022-10-31T09:15:43;13.80;99.90
8953;DHT22;4511;50.890;8.054;2022-10-31T09:18:11;13.80;99.90
8953;DHT22;4511;50.890;8.054;2022-10-31T09:20:39;14.00;99.90
8953;DHT22;4511;50.890;8.054;2022-10-31T09:23:08;14.20;99.90
8953;DHT22;4511;50.890;8.054;2022-10-31T09:25:38;14.40;99.90
8953;DHT22;4511;50.890;8.054;2022-10-31T09:28:06;14.70;99.90
8953;DHT22;4511;50.890;8.054;2022-10-31T09:30:34;14.90;99.90
8953;DHT22;4511;50.890;8.054;2022-10-31T09:33:03;15.20;99.90
8953;DHT22;4511;50.890;8.054;2022-10-31T09:35:30;15.20;99.90
8953;DHT22;4511;50.890;8.054;2022-10-31T09:37:58;15.40;99.90
8953;DHT22;4511;50.890;8.054;2022-10-31T09:40:31;15.60;99.90
8953;DHT22;4511;50.890;8.054;2022-10-31T09:43:07;15.70;99.90
8953;DHT22;4511;50.890;8.054;2022-10-31T09:45:39;15.90;99.90
8953;DHT22;4511;50.890;8.054;2022-10-31T09:48:21;15.90;99.90
8953;DHT22;4511;50.890;8.054;2022-10-31T09:50:51;16.10;99.90
8953;DHT22;4511;50.890;8.054;2022-10-31T09:53:23;16.30;99.90
8953;DHT22;4511;50.890;8.054;2022-10-31T09:55:53;16.40;99.90
8953;DHT22;4511;50.890;8.054;2022-10-31T09:58:25;16.50;99.90
8953;DHT22;4511;50.890;8.054;2022-10-31T10:00:54;16.60;99.90
8953;DHT22;4511;50.890;8.054;2022-10-31T10:03:31;16.70;99.90
8953;DHT22;4511;50.890;8.054;2022-10-31T10:06:08;16.80;99.90
8953;DHT22;4511;50.890;8.054;2022-10-31T10:08:37;16.90;99.90
8953;DHT22;4511;50.890;8.054;2022-10-31T10:11:22;17.00;99.90
8953;DHT22;4511;50.890;8.054;2022-10-31T10:14:05;17.20;99.90
8953;DHT22;4511;50.890;8.054;2022-10-31T10:16:45;17.20;99.90
8953;DHT22;4511;50.890;8.054;2022-10-31T10:19:24;17.30;99.90
8953;DHT22;4511;50.890;8.054;2022-10-31T10:21:59;17.30;99.90
8953;DHT22;4511;50.890;8.054;2022-10-31T10:24:38;17.40;99.90
8953;DHT22;4511;50.890;8.054;2022-10-31T10:27:15;17.40;99.90
8953;DHT22;4511;50.890;8.054;2022-10-31T10:29:50;17.40;99.90
8953;DHT22;4511;50.890;8.054;2022-10-31T10:32:22;17.50;99.90
8953;DHT22;4511;50.890;8.054;2022-10-31T10:34:51;17.50;99.90
8953;DHT22;4511;50.890;8.054;2022-10-31T10:37:24;17.60;99.90
8953;DHT22;4511;50.890;8.054;2022-10-31T10:39:56;17.70;99.90
8953;DHT22;4511;50.890;8.054;2022-10-31T10:42:26;17.70;99.90
8953;DHT22;4511;50.890;8.054;2022-10-31T10:45:19;17.80;99.90
8953;DHT22;4511;50.890;8.054;2022-10-31T10:48:08;17.90;99.90
8953;DHT22;4511;50.890;8.054;2022-10-31T10:50:41;18.10;99.90
8953;DHT22;4511;50.890;8.054;2022-10-31T10:53:25;18.20;99.90
8953;DHT22;4511;50.890;8.054;2022-10-31T10:56:08;18.30;99.90
8953;DHT22;4511;50.890;8.054;2022-10-31T10:58:38;18.40;99.90
8953;DHT22;4511;50.890;8.054;2022-10-31T11:01:11;18.50;99.90
8953;DHT22;4511;50.890;8.054;2022-10-31T11:03:39;18.70;99.90
8953;DHT22;4511;50.890;8.054;2022-10-31T11:06:16;18.90;99.90
8953;DHT22;4511;50.890;8.054;2022-10-31T11:08:46;19.00;99.90
8953;DHT22;4511;50.890;8.054;2022-10-31T11:11:23;19.20;99.90
8953;DHT22;4511;50.890;8.054;2022-10-31T11:14:00;19.30;99.90
8953;DHT22;4511;50.890;8.054;2022-10-31T11:16:32;19.40;99.90
8953;DHT22;4511;50.890;8.054;2022-10-31T11:19:08;19.50;99.90
8953;DHT22;4511;50.890;8.054;2022-10-31T11:21:36;19.50;99.90
8953;DHT22;4511;50.890;8.054;2022-10-31T11:24:03;19.60;99.90
8953;DHT22;4511;50.890;8.054;2022-10-31T11:26:30;19.80;99.90
8953;DHT22;4511;50.890;8.054;2022-10-31T11:29:00;19.80;99.90
8953;DHT22;4511;50.890;8.054;2022-10-31T11:31:30;20.00;99.90
8953;DHT22;4511;50.890;8.054;2022-10-31T11:34:00;20.10;99.90
8953;DHT22;4511;50.890;8.054;2022-10-31T11:36:30;20.30;99.90
8953;DHT22;4511;50.890;8.054;2022-10-31T11:38:59;20.40;99.90
8953;DHT22;4511;50.890;8.054;2022-10-31T11:41:28;20.60;99.90
8953;DHT22;4511;50.890;8.054;2022-10-31T11:43:58;20.60;99.90
8953;DHT22;4511;50.890;8.054;2022-10-31T11:46:32;20.60;99.90
8953;DHT22;4511;50.890;8.054;2022-10-31T11:49:01;20.70;99.90
8953;DHT22;4511;50.890;8.054;2022-10-31T11:51:31;20.70;99.90
8953;DHT22;4511;50.890;8.054;2022-10-31T11:54:00;20.70;99.90
8953;DHT22;4511;50.890;8.054;2022-10-31T11:56:37;20.70;99.90
8953;DHT22;4511;50.890;8.054;2022-10-31T11:59:14;20.70;99.90
8953;DHT22;4511;50.890;8.054;2022-10-31T12:01:47;20.60;99.90
8953;DHT22;4511;50.890;8.054;2022-10-31T12:04:15;20.60;99.90
8953;DHT22;4511;50.890;8.054;2022-10-31T12:06:43;20.60;99.90
8953;DHT22;4511;50.890;8.054;2022-10-31T12:09:21;20.60;99.90
8953;DHT22;4511;50.890;8.054;2022-10-31T12:12:00;20.60;99.90
8953;DHT22;4511;50.890;8.054;2022-10-31T12:14:35;20.60;99.90
8953;DHT22;4511;50.890;8.054;2022-10-31T12:17:11;20.60;99.90
8953;DHT22;4511;50.890;8.054;2022-10-31T12:19:43;20.80;99.90
8953;DHT22;4511;50.890;8.054;2022-10-31T12:22:19;21.00;99.90
8953;DHT22;4511;50.890;8.054;2022-10-31T12:25:08;21.40;99.90
8953;DHT22;4511;50.890;8.054;2022-10-31T12:28:00;21.50;99.90
8953;DHT22;4511;50.890;8.054;2022-10-31T12:30:39;21.60;99.90
8953;DHT22;4511;50.890;8.054;2022-10-31T12:33:30;21.70;99.90
8953;DHT22;4511;50.890;8.054;2022-10-31T12:36:12;21.70;99.90
8953;DHT22;4511;50.890;8.054;2022-10-31T12:38:56;21.70;99.90
8953;DHT22;4511;50.890;8.054;2022-10-31T12:41:37;21.60;99.90
8953;DHT22;4511;50.890;8.054;2022-10-31T12:44:10;21.50;99.90
8953;DHT22;4511;50.890;8.054;2022-10-31T12:46:59;21.40;99.90
8953;DHT22;4511;50.890;8.054;2022-10-31T12:49:43;21.20;99.90
8953;DHT22;4511;50.890;8.054;2022-10-31T12:52:28;21.10;99.90
8953;DHT22;4511;50.890;8.054;2022-10-31T12:57:35;20.90;99.90
8953;DHT22;4511;50.890;8.054;2022-10-31T13:00:07;20.90;99.90
8953;DHT22;4511;50.890;8.054;2022-10-31T13:02:39;20.80;99.90
8953;DHT22;4511;50.890;8.054;2022-10-31T13:05:16;20.70;99.90
8953;DHT22;4511;50.890;8.054;2022-10-31T13:07:47;20.60;99.90
8953;DHT22;4511;50.890;8.054;2022-10-31T13:10:19;20.60;99.90
8953;DHT22;4511;50.890;8.054;2022-10-31T13:12:49;20.60;99.90
8953;DHT22;4511;50.890;8.054;2022-10-31T13:15:19;20.50;99.90
8953;DHT22;4511;50.890;8.054;2022-10-31T13:17:49;20.40;99.90
8953;DHT22;4511;50.890;8.054;2022-10-31T13:20:22;20.40;99.90
8953;DHT22;4511;50.890;8.054;2022-10-31T13:22:54;20.30;99.90
8953;DHT22;4511;50.890;8.054;2022-10-31T13:25:25;20.20;99.90
8953;DHT22;4511;50.890;8.054;2022-10-31T13:27:56;20.10;99.90
8953;DHT22;4511;50.890;8.054;2022-10-31T13:33:00;19.90;99.90
8953;DHT22;4511;50.890;8.054;2022-10-31T13:35:34;19.80;99.90
8953;DHT22;4511;50.890;8.054;2022-10-31T13:38:13;19.80;99.90
8953;DHT22;4511;50.890;8.054;2022-10-31T13:40:47;19.70;99.90
8953;DHT22;4511;50.890;8.054;2022-10-31T13:43:23;19.60;99.90
8953;DHT22;4511;50.890;8.054;2022-10-31T13:45:54;19.50;99.90
8953;DHT22;4511;50.890;8.054;2022-10-31T13:48:40;19.40;99.90
8953;DHT22;4511;50.890;8.054;2022-10-31T13:51:10;19.40;99.90
8953;DHT22;4511;50.890;8.054;2022-10-31T13:53:45;19.40;99.90
8953;DHT22;4511;50.890;8.054;2022-10-31T13:56:24;19.30;99.90
8953;DHT22;4511;50.890;8.054;2022-10-31T13:59:01;19.30;99.90
8953;DHT22;4511;50.890;8.054;2022-10-31T14:01:29;19.30;99.90
8953;DHT22;4511;50.890;8.054;2022-10-31T14:04:02;19.20;99.90
8953;DHT22;4511;50.890;8.054;2022-10-31T14:06:40;19.30;99.90
8953;DHT22;4511;50.890;8.054;2022-10-31T14:09:19;19.30;99.90
8953;DHT22;4511;50.890;8.054;2022-10-31T14:11:47;19.30;99.90
8953;DHT22;4511;50.890;8.054;2022-10-31T14:14:15;19.30;99.90
8953;DHT22;4511;50.890;8.054;2022-10-31T14:16:44;19.20;99.90
8953;DHT22;4511;50.890;8.054;2022-10-31T14:19:17;19.20;99.90
8953;DHT22;4511;50.890;8.054;2022-10-31T14:21:47;19.20;99.90
8953;DHT22;4511;50.890;8.054;2022-10-31T14:24:29;19.20;99.90
8953;DHT22;4511;50.890;8.054;2022-10-31T14:26:59;19.10;99.90
8953;DHT22;4511;50.890;8.054;2022-10-31T14:29:27;19.10;99.90
8953;DHT22;4511;50.890;8.054;2022-10-31T14:32:04;19.00;99.90
8953;DHT22;4511;50.890;8.054;2022-10-31T14:34:38;18.90;99.90
8953;DHT22;4511;50.890;8.054;2022-10-31T14:37:27;18.80;99.90
8953;DHT22;4511;50.890;8.054;2022-10-31T14:40:14;18.80;99.90
8953;DHT22;4511;50.890;8.054;2022-10-31T14:42:56;18.80;99.90
8953;DHT22;4511;50.890;8.054;2022-10-31T14:45:31;18.60;99.90
8953;DHT22;4511;50.890;8.054;2022-10-31T14:48:15;18.60;99.90
8953;DHT22;4511;50.890;8.054;2022-10-31T14:50:48;18.50;99.90
8953;DHT22;4511;50.890;8.054;2022-10-31T14:53:26;18.40;99.90
8953;DHT22;4511;50.890;8.054;2022-10-31T14:55:55;18.40;99.90
8953;DHT22;4511;50.890;8.054;2022-10-31T14:58:24;18.40;99.90
8953;DHT22;4511;50.890;8.054;2022-10-31T15:00:56;18.40;99.90
8953;DHT22;4511;50.890;8.054;2022-10-31T15:03:27;18.30;99.90
8953;DHT22;4511;50.890;8.054;2022-10-31T15:05:58;18.30;99.90
8953;DHT22;4511;50.890;8.054;2022-10-31T15:08:32;18.20;99.90
8953;DHT22;4511;50.890;8.054;2022-10-31T15:11:03;18.20;99.90
8953;DHT22;4511;50.890;8.054;2022-10-31T15:13:30;18.20;99.90
8953;DHT22;4511;50.890;8.054;2022-10-31T15:15:56;18.20;99.90
8953;DHT22;4511;50.890;8.054;2022-10-31T15:18:25;18.20;99.90
8953;DHT22;4511;50.890;8.054;2022-10-31T15:20:55;18.20;99.90
8953;DHT22;4511;50.890;8.054;2022-10-31T15:23:28;18.20;99.90
8953;DHT22;4511;50.890;8.054;2022-10-31T15:25:59;18.20;99.90
8953;DHT22;4511;50.890;8.054;2022-10-31T15:28:27;18.10;99.90
8953;DHT22;4511;50.890;8.054;2022-10-31T15:30:55;18.10;99.90
8953;DHT22;4511;50.890;8.054;2022-10-31T15:33:24;18.20;99.90
8953;DHT22;4511;50.890;8.054;2022-10-31T15:35:55;18.10;99.90
8953;DHT22;4511;50.890;8.054;2022-10-31T15:38:24;18.20;99.90
8953;DHT22;4511;50.890;8.054;2022-10-31T15:40:55;18.30;99.90
8953;DHT22;4511;50.890;8.054;2022-10-31T15:43:22;18.20;99.90
8953;DHT22;4511;50.890;8.054;2022-10-31T15:45:49;18.20;99.90
8953;DHT22;4511;50.890;8.054;2022-10-31T15:48:17;18.10;99.90
8953;DHT22;4511;50.890;8.054;2022-10-31T15:50:47;18.10;99.90
8953;DHT22;4511;50.890;8.054;2022-10-31T15:53:17;18.00;99.90
8953;DHT22;4511;50.890;8.054;2022-10-31T15:55:50;17.90;99.90
8953;DHT22;4511;50.890;8.054;2022-10-31T15:58:20;17.80;99.90
8953;DHT22;4511;50.890;8.054;2022-10-31T16:00:57;17.70;99.90
8953;DHT22;4511;50.890;8.054;2022-10-31T16:03:26;17.70;99.90
8953;DHT22;4511;50.890;8.054;2022-10-31T16:05:55;17.60;99.90
8953;DHT22;4511;50.890;8.054;2022-10-31T16:08:24;17.50;99.90
8953;DHT22;4511;50.890;8.054;2022-10-31T16:10:52;17.40;99.90
8953;DHT22;4511;50.890;8.054;2022-10-31T16:13:30;17.30;99.90
8953;DHT22;4511;50.890;8.054;2022-10-31T16:15:59;17.30;99.90
8953;DHT22;4511;50.890;8.054;2022-10-31T16:18:27;17.20;99.90
8953;DHT22;4511;50.890;8.054;2022-10-31T16:20:55;17.10;99.90
8953;DHT22;4511;50.890;8.054;2022-10-31T16:23:24;17.10;99.90
8953;DHT22;4511;50.890;8.054;2022-10-31T16:25:52;17.00;99.90
8953;DHT22;4511;50.890;8.054;2022-10-31T16:28:21;16.90;99.90
8953;DHT22;4511;50.890;8.054;2022-10-31T16:30:50;16.80;99.90
8953;DHT22;4511;50.890;8.054;2022-10-31T16:33:24;16.80;99.90